Aviation Digital Data Service (ADDS)

Output produced by METARs form (1546 UTC 03 June 2015)
found at http://aviationweather.gov/adds/metars/
 
KECG 031135Z 0312/0412 02009KT 2SM BR OVC002 
     FM031300 02009KT 2SM -RA BR OVC004 
     FM031500 03009KT 4SM -RA BR OVC020 
     FM031800 09005KT P6SM OVC025 
     FM040600 10007KT 5SM BR OVC015